createdAt,value
2024-03-05T00:00:47.863Z,65.98
2024-03-05T00:03:49.941Z,66.43
2024-03-05T00:06:52.017Z,66.36
2024-03-05T00:09:53.934Z,66.55
2024-03-05T00:12:55.894Z,66.52
2024-03-05T00:15:58.517Z,66.56
2024-03-05T00:19:00.610Z,66.47
2024-03-05T00:22:02.393Z,66.81
2024-03-05T00:25:05.516Z,67.01
2024-03-05T00:28:07.400Z,67.20
2024-03-05T00:31:09.416Z,67.16
2024-03-05T00:34:11.325Z,67.38
2024-03-05T00:37:13.348Z,67.23
2024-03-05T00:40:15.993Z,67.17
2024-03-05T00:43:18.102Z,67.34
2024-03-05T00:46:22.193Z,67.28
2024-03-05T00:49:24.461Z,67.43
2024-03-05T00:52:26.565Z,67.73
2024-03-05T00:55:29.860Z,67.63
2024-03-05T00:58:32.018Z,68.01
2024-03-05T01:01:35.111Z,67.97
2024-03-05T01:04:37.819Z,68.38
2024-03-05T01:07:40.667Z,68.45
2024-03-05T01:10:46.615Z,68.57
2024-03-05T01:13:48.702Z,68.70
2024-03-05T01:16:50.754Z,68.96
2024-03-05T01:19:52.871Z,68.98
2024-03-05T01:22:54.982Z,69.10
2024-03-05T01:25:57.130Z,68.70
2024-03-05T01:28:59.200Z,69.05
2024-03-05T01:32:03.318Z,69.04
2024-03-05T01:35:10.387Z,69.11
2024-03-05T01:38:12.292Z,69.28
2024-03-05T01:41:14.687Z,69.18
2024-03-05T01:44:16.688Z,69.16
2024-03-05T01:47:18.943Z,69.28
2024-03-05T01:50:20.959Z,69.32
2024-03-05T01:53:25.149Z,69.29
2024-03-05T01:56:27.074Z,69.14
2024-03-05T01:59:29.135Z,69.40
2024-03-05T02:02:31.532Z,69.57
2024-03-05T02:05:34.156Z,69.46
2024-03-05T02:08:36.653Z,69.43
2024-03-05T02:11:52.128Z,69.45
2024-03-05T02:14:58.241Z,69.39
2024-03-05T02:18:00.227Z,69.68
2024-03-05T02:21:04.398Z,69.85
2024-03-05T02:24:06.818Z,69.75
2024-03-05T02:27:11.948Z,70.01
2024-03-05T02:30:16.555Z,69.84
2024-03-05T02:33:20.088Z,70.06
2024-03-05T02:36:24.741Z,70.02
2024-03-05T02:39:28.556Z,70.30
2024-03-05T02:42:30.485Z,70.18
2024-03-05T02:45:32.411Z,70.13
2024-03-05T02:48:34.438Z,70.20
2024-03-05T02:51:36.489Z,70.30
2024-03-05T02:54:41.127Z,70.31
2024-03-05T02:57:43.267Z,70.27
2024-03-05T03:00:45.426Z,70.27
2024-03-05T03:03:47.420Z,69.96
2024-03-05T03:06:49.381Z,70.43
2024-03-05T03:09:51.372Z,70.17
2024-03-05T03:12:53.966Z,70.47
2024-03-05T03:15:55.871Z,70.28
2024-03-05T03:18:57.764Z,70.46
2024-03-05T03:21:59.775Z,70.50
2024-03-05T03:25:01.765Z,70.39
2024-03-05T03:28:04.063Z,70.66
2024-03-05T03:35:59.922Z,70.67
2024-03-05T03:39:01.853Z,70.91
2024-03-05T03:42:04.221Z,71.32
2024-03-05T03:45:06.464Z,71.54
2024-03-05T03:48:08.816Z,71.82
2024-03-05T03:51:11.076Z,71.94
2024-03-05T03:54:13.023Z,72.09
2024-03-05T03:57:14.948Z,72.08
2024-03-05T04:00:20.307Z,72.14
2024-03-05T04:03:22.433Z,71.96
2024-03-05T04:06:24.410Z,72.37
2024-03-05T04:09:26.428Z,72.38
2024-03-05T04:12:29.066Z,72.45
2024-03-05T04:15:31.168Z,72.45
2024-03-05T04:18:33.237Z,72.47
2024-03-05T04:21:45.889Z,72.90
2024-03-05T04:24:53.898Z,72.78
2024-03-05T04:27:57.229Z,72.77
2024-03-05T04:30:59.207Z,72.64
2024-03-05T04:34:04.104Z,72.73
2024-03-05T04:37:10.154Z,72.85
2024-03-05T04:40:12.634Z,72.59
2024-03-05T04:43:14.584Z,72.62
2024-03-05T04:46:16.656Z,72.38
2024-03-05T04:49:18.621Z,72.72
2024-03-05T04:52:20.651Z,72.68
2024-03-05T04:55:23.507Z,72.57
2024-03-05T04:58:25.768Z,72.55
2024-03-05T05:01:27.864Z,72.54
2024-03-05T05:04:30.090Z,72.66
2024-03-05T05:07:32.094Z,72.26
2024-03-05T05:10:35.297Z,72.14
2024-03-05T05:13:37.227Z,72.31
2024-03-05T05:16:39.261Z,72.45
2024-03-05T05:19:42.331Z,72.51
2024-03-05T05:22:45.888Z,72.34
2024-03-05T05:25:48.054Z,72.21
2024-03-05T05:28:51.488Z,72.06
2024-03-05T05:31:53.595Z,71.98
2024-03-05T05:34:55.699Z,72.34
2024-03-05T05:37:58.777Z,71.89
2024-03-05T05:41:00.831Z,71.59
2024-03-05T05:44:02.899Z,71.80
2024-03-05T05:47:05.120Z,71.69
2024-03-05T05:50:18.786Z,71.50
2024-03-05T05:53:20.938Z,71.19
2024-03-05T05:56:22.915Z,71.01
2024-03-05T05:59:26.463Z,71.07
2024-03-05T06:02:29.163Z,70.83
2024-03-05T06:05:36.716Z,70.70
2024-03-05T06:08:38.771Z,71.07
2024-03-05T06:11:40.962Z,70.93
2024-03-05T06:14:43.031Z,71.20
2024-03-05T06:17:46.528Z,71.40
2024-03-05T06:20:50.726Z,71.17
2024-03-05T06:23:52.540Z,71.52
2024-03-05T06:26:54.641Z,71.55
2024-03-05T06:29:56.841Z,71.71
2024-03-05T06:32:58.861Z,71.54
2024-03-05T06:36:03.080Z,71.43
2024-03-05T06:39:10.446Z,71.38
2024-03-05T06:42:14.705Z,71.30
2024-03-05T06:45:26.111Z,71.31
2024-03-05T06:48:31.907Z,71.13
2024-03-05T06:51:43.433Z,71.10
2024-03-05T06:55:03.998Z,71.14
2024-03-05T06:58:06.002Z,71.37
2024-03-05T07:01:10.886Z,71.48
2024-03-05T07:04:12.705Z,71.39
2024-03-05T07:07:14.822Z,70.98
2024-03-05T07:10:22.579Z,70.79
2024-03-05T07:13:24.829Z,70.46
2024-03-05T07:16:26.878Z,70.48
2024-03-05T07:19:28.985Z,70.36
2024-03-05T07:22:31.028Z,70.18
2024-03-05T07:25:33.039Z,70.37
2024-03-05T07:28:35.097Z,69.87
2024-03-05T07:31:37.367Z,69.79
2024-03-05T07:34:41.113Z,69.93
2024-03-05T07:37:47.970Z,69.72
2024-03-05T07:40:50.466Z,69.40
2024-03-05T07:43:52.650Z,68.64
2024-03-05T07:46:56.089Z,68.44
2024-03-05T07:49:58.141Z,68.11
2024-03-05T07:53:00.438Z,67.78
2024-03-05T07:56:02.540Z,67.64
2024-03-05T07:59:04.567Z,67.18
2024-03-05T08:02:08.818Z,66.75
2024-03-05T08:05:11.113Z,66.10
2024-03-05T08:08:13.272Z,65.41
2024-03-05T08:11:15.237Z,64.96
2024-03-05T08:14:17.175Z,64.38
2024-03-05T08:17:19.959Z,63.45
2024-03-05T08:20:26.945Z,62.54
2024-03-05T08:23:28.975Z,61.94
2024-03-05T08:26:31.011Z,61.21
2024-03-05T08:29:33.034Z,60.39
2024-03-05T08:32:41.709Z,59.49
2024-03-05T08:35:44.671Z,59.00
2024-03-05T08:38:50.379Z,58.13
2024-03-05T08:41:52.667Z,57.69
2024-03-05T08:44:54.701Z,57.04
2024-03-05T08:47:56.823Z,56.43
2024-03-05T08:51:01.988Z,55.71
2024-03-05T08:54:04.016Z,55.19
2024-03-05T08:57:07.047Z,54.57
2024-03-05T09:00:26.876Z,54.10
2024-03-05T09:03:38.177Z,53.79
2024-03-05T09:06:42.010Z,53.18
2024-03-05T09:09:44.026Z,52.90
2024-03-05T09:12:45.985Z,52.34
2024-03-05T09:15:48.159Z,51.77
2024-03-05T09:18:50.161Z,51.31
2024-03-05T09:21:52.190Z,51.54
2024-03-05T09:24:54.340Z,51.93
2024-03-05T09:27:56.439Z,52.01
2024-03-05T09:30:58.462Z,51.62
2024-03-05T09:34:03.829Z,50.42
2024-03-05T09:37:06.625Z,50.29
2024-03-05T09:40:17.116Z,50.41
2024-03-05T09:43:23.213Z,50.18
2024-03-05T09:46:27.660Z,50.08
2024-03-05T09:49:30.924Z,50.03
2024-03-05T09:52:35.236Z,49.52
2024-03-05T09:55:37.596Z,48.66
2024-03-05T09:58:40.833Z,48.02
2024-03-05T10:01:46.015Z,47.77
2024-03-05T10:04:48.392Z,47.67
2024-03-05T10:07:50.962Z,47.49
2024-03-05T10:11:04.417Z,47.22
2024-03-05T10:14:12.373Z,47.18
2024-03-05T10:17:14.432Z,47.21
2024-03-05T10:20:29.736Z,46.71
2024-03-05T10:23:31.902Z,46.84
2024-03-05T10:26:34.067Z,46.60
2024-03-05T10:29:39.198Z,46.61
2024-03-05T10:32:41.589Z,46.31
2024-03-05T10:35:51.356Z,46.51
2024-03-05T10:38:54.666Z,46.60
2024-03-05T10:42:01.121Z,46.90
2024-03-05T10:45:03.508Z,47.02
2024-03-05T10:48:06.371Z,46.97
2024-03-05T10:51:14.318Z,46.61
2024-03-05T10:54:16.407Z,46.75
2024-03-05T10:57:20.227Z,46.40
2024-03-05T11:00:25.369Z,46.27
2024-03-05T11:03:42.892Z,45.55
2024-03-05T11:06:48.429Z,45.69
2024-03-05T11:09:51.279Z,45.39
2024-03-05T11:12:57.311Z,45.34
2024-03-05T11:16:01.630Z,45.47
2024-03-05T11:19:10.633Z,44.98
2024-03-05T11:22:27.756Z,44.31
2024-03-05T11:25:32.170Z,44.44
2024-03-05T11:28:37.524Z,44.15
2024-03-05T11:31:52.298Z,43.54
2024-03-05T11:35:01.947Z,43.37
2024-03-05T11:38:07.297Z,43.09
2024-03-05T11:41:10.157Z,43.00
2024-03-05T11:44:14.408Z,42.96
2024-03-05T11:47:21.203Z,42.20
2024-03-05T11:50:25.244Z,42.44
2024-03-05T11:53:28.284Z,42.62
2024-03-05T11:56:30.454Z,42.47
2024-03-05T11:59:39.884Z,42.69
2024-03-05T12:02:59.798Z,42.61
2024-03-05T12:06:04.778Z,42.52
2024-03-05T12:09:21.763Z,42.21
2024-03-05T12:12:27.401Z,42.13
2024-03-05T12:15:32.553Z,41.64
2024-03-05T12:18:35.563Z,41.39
2024-03-05T12:21:43.786Z,40.74
2024-03-05T12:24:46.201Z,40.41
2024-03-05T12:27:51.198Z,40.10
2024-03-05T12:30:53.763Z,39.75
2024-03-05T12:33:56.851Z,39.54
2024-03-05T12:36:58.858Z,39.41
2024-03-05T12:40:01.498Z,40.18
2024-03-05T12:43:11.624Z,40.73
2024-03-05T12:46:20.635Z,41.18
2024-03-05T12:49:22.617Z,40.87
2024-03-05T12:52:24.775Z,40.55
2024-03-05T12:55:27.996Z,40.34
2024-03-05T12:58:46.411Z,40.51
2024-03-05T13:01:49.609Z,40.72
2024-03-05T13:04:53.092Z,40.83
2024-03-05T13:07:56.157Z,40.56
2024-03-05T13:11:00.276Z,40.77
2024-03-05T13:14:24.827Z,40.79
2024-03-05T13:17:30.112Z,40.59
2024-03-05T13:20:37.150Z,40.77
2024-03-05T13:23:41.635Z,40.37
2024-03-05T13:26:50.206Z,40.32
2024-03-05T13:30:01.535Z,40.15
2024-03-05T13:33:12.889Z,40.13
2024-03-05T13:36:14.928Z,39.96
2024-03-05T13:39:23.455Z,40.19
2024-03-05T13:42:25.790Z,39.98
2024-03-05T13:45:28.882Z,40.03
2024-03-05T13:48:34.691Z,40.04
2024-03-05T13:51:39.219Z,40.03
2024-03-05T13:54:41.268Z,39.99
2024-03-05T13:57:43.308Z,39.75
2024-03-05T14:00:45.347Z,39.70
2024-03-05T14:03:47.430Z,39.78
2024-03-05T14:06:49.866Z,40.06
2024-03-05T14:09:51.882Z,40.07
2024-03-05T14:12:55.119Z,39.82
2024-03-05T14:15:57.189Z,39.95
2024-03-05T14:19:00.110Z,40.10
2024-03-05T14:22:03.809Z,40.08
2024-03-05T14:25:09.322Z,40.38
2024-03-05T14:28:15.455Z,40.35
2024-03-05T14:31:18.666Z,40.63
2024-03-05T14:34:24.804Z,40.68
2024-03-05T14:37:28.957Z,40.59
2024-03-05T14:40:33.423Z,40.49
2024-03-05T14:43:36.466Z,40.05
2024-03-05T14:46:40.543Z,40.16
2024-03-05T14:49:43.666Z,39.93
2024-03-05T14:52:45.822Z,39.87
2024-03-05T14:55:47.879Z,40.33
2024-03-05T14:58:50.006Z,40.30
2024-03-05T15:01:53.694Z,40.74
2024-03-05T15:04:57.739Z,40.79
2024-03-05T15:07:59.752Z,41.15
2024-03-05T15:11:02.176Z,41.24
2024-03-05T15:14:04.673Z,41.44
2024-03-05T15:17:08.972Z,42.11
2024-03-05T15:20:12.808Z,42.31
2024-03-05T15:23:15.069Z,42.31
2024-03-05T15:26:17.303Z,42.78
2024-03-05T15:29:19.588Z,43.21
2024-03-05T15:32:22.521Z,43.46
2024-03-05T15:35:25.314Z,43.86
2024-03-05T15:38:27.297Z,44.45
2024-03-05T15:41:30.010Z,44.85
2024-03-05T15:44:32.031Z,45.75
2024-03-05T15:47:38.405Z,47.76
2024-03-05T15:50:43.448Z,49.49
2024-03-05T15:53:45.556Z,50.68
2024-03-05T15:56:58.538Z,51.45
2024-03-05T16:00:12.460Z,52.07
2024-03-05T16:03:14.696Z,52.81
2024-03-05T16:06:19.421Z,53.49
2024-03-05T16:09:21.867Z,54.13
2024-03-05T16:12:27.472Z,54.61
2024-03-05T16:15:32.548Z,55.45
2024-03-05T16:18:34.973Z,55.92
2024-03-05T16:21:37.525Z,56.20
2024-03-05T16:24:39.844Z,57.14
2024-03-05T16:27:46.191Z,57.24
2024-03-05T16:30:49.421Z,57.76
2024-03-05T16:33:51.399Z,57.96
2024-03-05T16:36:53.296Z,58.40
2024-03-05T16:39:55.224Z,58.91
2024-03-05T16:42:58.240Z,59.05
2024-03-05T16:46:01.331Z,59.16
2024-03-05T16:49:04.910Z,59.54
2024-03-05T16:52:07.947Z,59.74
2024-03-05T16:55:14.576Z,59.98
2024-03-05T16:58:19.124Z,59.78
2024-03-05T17:01:23.310Z,60.15
2024-03-05T17:04:29.035Z,59.75
2024-03-05T17:07:33.723Z,60.32
2024-03-05T17:10:36.580Z,60.18
2024-03-05T17:13:42.758Z,60.32
2024-03-05T17:16:47.065Z,60.17
2024-03-05T17:19:49.057Z,60.63
2024-03-05T17:22:53.567Z,60.37
2024-03-05T17:25:57.253Z,60.30
2024-03-05T17:29:06.683Z,60.25
2024-03-05T17:32:11.016Z,60.28
2024-03-05T17:35:13.970Z,60.20
2024-03-05T17:38:16.023Z,60.05
2024-03-05T17:41:18.157Z,59.61
2024-03-05T17:44:20.276Z,59.84
2024-03-05T17:47:22.298Z,59.45
2024-03-05T17:50:26.029Z,59.67
2024-03-05T17:53:27.919Z,59.29
2024-03-05T17:56:31.527Z,59.32
2024-03-05T17:59:33.872Z,59.42
2024-03-05T18:02:36.616Z,59.63
2024-03-05T18:05:38.696Z,59.95
2024-03-05T18:08:40.879Z,60.82
2024-03-05T18:11:43.024Z,61.19
2024-03-05T18:14:45.223Z,61.51
2024-03-05T18:17:51.904Z,62.03
2024-03-05T18:20:55.282Z,61.84
2024-03-05T18:23:59.146Z,62.12
2024-03-05T18:27:05.174Z,62.29
2024-03-05T18:30:10.952Z,62.23
2024-03-05T18:33:15.466Z,62.62
2024-03-05T18:36:20.859Z,62.44
2024-03-05T18:39:24.176Z,62.48
2024-03-05T18:42:29.784Z,62.75
2024-03-05T18:45:33.270Z,63.03
2024-03-05T18:48:35.260Z,63.29
2024-03-05T18:51:37.173Z,63.41
2024-03-05T18:54:40.724Z,64.07
2024-03-05T18:57:44.412Z,64.16
2024-03-05T19:00:47.850Z,64.47
2024-03-05T19:03:52.811Z,65.02
2024-03-05T19:06:56.282Z,65.19
2024-03-05T19:09:59.211Z,65.39
2024-03-05T19:13:07.318Z,65.54
2024-03-05T19:16:09.508Z,65.94
2024-03-05T19:19:11.959Z,65.99
2024-03-05T19:22:13.872Z,65.72
2024-03-05T19:25:18.613Z,65.90
2024-03-05T19:28:21.065Z,65.87
2024-03-05T19:31:23.078Z,66.30
2024-03-05T19:34:26.035Z,66.37
2024-03-05T19:37:28.207Z,66.64
2024-03-05T19:40:30.156Z,66.80
2024-03-05T19:43:37.612Z,66.93
2024-03-05T19:46:40.680Z,66.92
2024-03-05T19:49:43.499Z,67.15
2024-03-05T19:52:47.016Z,67.46
2024-03-05T19:55:49.043Z,67.37
2024-03-05T19:58:51.047Z,67.51
2024-03-05T20:01:53.106Z,67.59
2024-03-05T20:04:55.109Z,67.70
2024-03-05T20:07:57.127Z,67.92
2024-03-05T20:10:59.374Z,67.95
2024-03-05T20:14:01.416Z,68.03
2024-03-05T20:17:07.331Z,68.13
2024-03-05T20:20:18.946Z,68.13
2024-03-05T20:23:24.322Z,68.09
2024-03-05T20:26:26.435Z,68.48
2024-03-05T20:29:30.029Z,68.39
2024-03-05T20:32:32.399Z,68.81
2024-03-05T20:35:38.638Z,68.77
2024-03-05T20:38:42.325Z,68.78
2024-03-05T20:41:46.559Z,68.80
2024-03-05T20:44:48.503Z,69.07
2024-03-05T20:47:50.433Z,69.09
2024-03-05T20:50:52.543Z,69.00
2024-03-05T20:53:54.847Z,68.93
2024-03-05T20:56:57.192Z,68.95
2024-03-05T21:00:10.293Z,69.15
2024-03-05T21:03:12.647Z,69.17
2024-03-05T21:06:14.858Z,69.24
2024-03-05T21:09:17.009Z,69.37
2024-03-05T21:12:19.071Z,69.28
2024-03-05T21:15:22.498Z,69.30
2024-03-05T21:18:24.789Z,69.32
2024-03-05T21:21:26.812Z,69.75
2024-03-05T21:24:30.354Z,69.53
2024-03-05T21:27:40.209Z,70.03
2024-03-05T21:30:43.629Z,70.09
2024-03-05T21:33:45.565Z,70.11
2024-03-05T21:36:47.543Z,70.34
2024-03-05T21:39:49.791Z,70.11
2024-03-05T21:42:51.775Z,70.27
2024-03-05T21:45:53.661Z,70.33
2024-03-05T21:48:55.898Z,70.18
2024-03-05T21:51:59.247Z,70.58
2024-03-05T21:55:01.272Z,70.90
2024-03-05T21:58:03.611Z,70.70
2024-03-05T22:01:06.047Z,70.63
2024-03-05T22:04:08.193Z,70.92
2024-03-05T22:07:10.134Z,70.88
2024-03-05T22:10:13.162Z,70.95
2024-03-05T22:13:15.196Z,70.97
2024-03-05T22:16:17.165Z,71.01
2024-03-05T22:19:19.181Z,70.93
2024-03-05T22:22:24.135Z,71.00
2024-03-05T22:25:26.396Z,71.09
2024-03-05T22:28:28.277Z,71.20
2024-03-05T22:31:31.342Z,71.32
2024-03-05T22:34:34.806Z,71.34
2024-03-05T22:37:40.081Z,71.63
2024-03-05T22:40:42.853Z,71.48
2024-03-05T22:43:45.205Z,71.60
2024-03-05T22:46:48.688Z,71.91
2024-03-05T22:49:50.594Z,71.65
2024-03-05T22:52:53.429Z,71.79
2024-03-05T22:55:56.969Z,71.88
2024-03-05T22:58:59.965Z,71.69
2024-03-05T23:02:02.271Z,71.94
2024-03-05T23:05:05.770Z,72.06
2024-03-05T23:08:13.505Z,71.92
2024-03-05T23:11:16.362Z,72.40
2024-03-05T23:14:18.484Z,72.67
2024-03-05T23:17:20.506Z,72.40
2024-03-05T23:20:22.752Z,72.84
2024-03-05T23:23:24.731Z,72.78
2024-03-05T23:26:27.653Z,73.20
2024-03-05T23:29:29.777Z,73.17
2024-03-05T23:32:33.544Z,73.15
2024-03-05T23:35:35.708Z,73.23
2024-03-05T23:38:37.599Z,73.24
2024-03-05T23:41:40.979Z,73.36
2024-03-05T23:44:43.096Z,73.32
2024-03-05T23:47:45.585Z,73.19
2024-03-05T23:50:47.719Z,73.67
2024-03-05T23:53:49.638Z,73.61
2024-03-05T23:56:51.576Z,73.56
2024-03-05T23:59:53.873Z,73.66
